sensor_id;sensor_type;location;lat;lon;timestamp;P1;durP1;ratioP1;P2;durP2;ratioP2
65751;SDS011;52486;51.098;13.770;2023-04-24T00:01:59;0.55;;;0.55;;
65751;SDS011;52486;51.098;13.770;2023-04-24T00:04:25;0.40;;;0.40;;
65751;SDS011;52486;51.098;13.770;2023-04-24T00:06:51;0.70;;;0.70;;
65751;SDS011;52486;51.098;13.770;2023-04-24T00:09:22;0.65;;;0.65;;
65751;SDS011;52486;51.098;13.770;2023-04-24T00:11:48;0.50;;;0.50;;
65751;SDS011;52486;51.098;13.770;2023-04-24T00:14:14;0.68;;;0.68;;
65751;SDS011;52486;51.098;13.770;2023-04-24T00:16:40;0.60;;;0.60;;
65751;SDS011;52486;51.098;13.770;2023-04-24T00:19:05;0.70;;;0.70;;
65751;SDS011;52486;51.098;13.770;2023-04-24T00:21:31;0.70;;;0.70;;
65751;SDS011;52486;51.098;13.770;2023-04-24T00:23:57;0.70;;;0.70;;
65751;SDS011;52486;51.098;13.770;2023-04-24T00:26:23;0.65;;;0.65;;
65751;SDS011;52486;51.098;13.770;2023-04-24T00:28:49;0.73;;;0.70;;
65751;SDS011;52486;51.098;13.770;2023-04-24T00:31:15;0.55;;;0.50;;
65751;SDS011;52486;51.098;13.770;2023-04-24T00:33:40;0.88;;;0.70;;
65751;SDS011;52486;51.098;13.770;2023-04-24T00:36:06;0.70;;;0.70;;
65751;SDS011;52486;51.098;13.770;2023-04-24T00:38:32;0.60;;;0.60;;
65751;SDS011;52486;51.098;13.770;2023-04-24T00:40:58;0.60;;;0.60;;
65751;SDS011;52486;51.098;13.770;2023-04-24T00:43:24;0.50;;;0.50;;
65751;SDS011;52486;51.098;13.770;2023-04-24T00:45:50;0.70;;;0.70;;
65751;SDS011;52486;51.098;13.770;2023-04-24T00:48:16;0.93;;;0.70;;
65751;SDS011;52486;51.098;13.770;2023-04-24T00:50:42;0.50;;;0.50;;
65751;SDS011;52486;51.098;13.770;2023-04-24T00:53:08;0.50;;;0.50;;
65751;SDS011;52486;51.098;13.770;2023-04-24T00:55:34;0.65;;;0.50;;
65751;SDS011;52486;51.098;13.770;2023-04-24T00:58:02;0.60;;;0.60;;
65751;SDS011;52486;51.098;13.770;2023-04-24T01:00:28;0.50;;;0.50;;
65751;SDS011;52486;51.098;13.770;2023-04-24T01:02:55;0.57;;;0.57;;
65751;SDS011;52486;51.098;13.770;2023-04-24T01:05:22;0.47;;;0.47;;
65751;SDS011;52486;51.098;13.770;2023-04-24T01:07:48;0.60;;;0.60;;
65751;SDS011;52486;51.098;13.770;2023-04-24T01:10:14;0.60;;;0.60;;
65751;SDS011;52486;51.098;13.770;2023-04-24T01:12:40;0.60;;;0.60;;
65751;SDS011;52486;51.098;13.770;2023-04-24T01:15:06;0.40;;;0.40;;
65751;SDS011;52486;51.098;13.770;2023-04-24T01:17:33;0.50;;;0.50;;
65751;SDS011;52486;51.098;13.770;2023-04-24T01:19:59;0.60;;;0.60;;
65751;SDS011;52486;51.098;13.770;2023-04-24T01:22:26;0.73;;;0.50;;
65751;SDS011;52486;51.098;13.770;2023-04-24T01:24:52;0.60;;;0.60;;
65751;SDS011;52486;51.098;13.770;2023-04-24T01:27:18;0.60;;;0.60;;
65751;SDS011;52486;51.098;13.770;2023-04-24T01:29:45;0.57;;;0.57;;
65751;SDS011;52486;51.098;13.770;2023-04-24T01:32:12;0.50;;;0.50;;
65751;SDS011;52486;51.098;13.770;2023-04-24T01:34:38;0.70;;;0.70;;
65751;SDS011;52486;51.098;13.770;2023-04-24T01:37:05;0.68;;;0.68;;
65751;SDS011;52486;51.098;13.770;2023-04-24T01:39:30;0.68;;;0.68;;
65751;SDS011;52486;51.098;13.770;2023-04-24T01:41:58;0.55;;;0.55;;
65751;SDS011;52486;51.098;13.770;2023-04-24T01:44:24;0.70;;;0.70;;
65751;SDS011;52486;51.098;13.770;2023-04-24T01:46:51;0.50;;;0.50;;
65751;SDS011;52486;51.098;13.770;2023-04-24T01:49:19;0.50;;;0.50;;
65751;SDS011;52486;51.098;13.770;2023-04-24T01:51:45;0.60;;;0.50;;
65751;SDS011;52486;51.098;13.770;2023-04-24T01:54:12;1.60;;;0.70;;
65751;SDS011;52486;51.098;13.770;2023-04-24T01:56:39;0.55;;;0.55;;
65751;SDS011;52486;51.098;13.770;2023-04-24T01:59:07;0.65;;;0.65;;
65751;SDS011;52486;51.098;13.770;2023-04-24T02:01:36;0.73;;;0.60;;
65751;SDS011;52486;51.098;13.770;2023-04-24T02:04:06;0.70;;;0.70;;
65751;SDS011;52486;51.098;13.770;2023-04-24T02:06:32;0.40;;;0.40;;
65751;SDS011;52486;51.098;13.770;2023-04-24T02:08:58;0.60;;;0.60;;
65751;SDS011;52486;51.098;13.770;2023-04-24T02:11:24;0.50;;;0.50;;
65751;SDS011;52486;51.098;13.770;2023-04-24T02:13:50;0.60;;;0.60;;
65751;SDS011;52486;51.098;13.770;2023-04-24T02:16:16;0.50;;;0.50;;
65751;SDS011;52486;51.098;13.770;2023-04-24T02:18:42;0.57;;;0.57;;
65751;SDS011;52486;51.098;13.770;2023-04-24T02:21:08;0.68;;;0.68;;
65751;SDS011;52486;51.098;13.770;2023-04-24T02:23:34;0.60;;;0.60;;
65751;SDS011;52486;51.098;13.770;2023-04-24T02:25:59;0.52;;;0.52;;
65751;SDS011;52486;51.098;13.770;2023-04-24T02:28:25;0.50;;;0.50;;
65751;SDS011;52486;51.098;13.770;2023-04-24T02:30:51;0.93;;;0.57;;
65751;SDS011;52486;51.098;13.770;2023-04-24T02:33:17;1.63;;;0.60;;
65751;SDS011;52486;51.098;13.770;2023-04-24T02:35:42;0.52;;;0.52;;
65751;SDS011;52486;51.098;13.770;2023-04-24T02:38:08;0.70;;;0.70;;
65751;SDS011;52486;51.098;13.770;2023-04-24T02:40:34;0.63;;;0.63;;
65751;SDS011;52486;51.098;13.770;2023-04-24T02:42:59;0.60;;;0.50;;
65751;SDS011;52486;51.098;13.770;2023-04-24T02:45:25;0.43;;;0.43;;
65751;SDS011;52486;51.098;13.770;2023-04-24T02:47:50;0.60;;;0.60;;
65751;SDS011;52486;51.098;13.770;2023-04-24T02:50:16;0.60;;;0.60;;
65751;SDS011;52486;51.098;13.770;2023-04-24T02:52:42;0.50;;;0.50;;
65751;SDS011;52486;51.098;13.770;2023-04-24T02:55:08;0.57;;;0.57;;
65751;SDS011;52486;51.098;13.770;2023-04-24T02:57:33;0.50;;;0.50;;
65751;SDS011;52486;51.098;13.770;2023-04-24T02:59:59;0.68;;;0.55;;
65751;SDS011;52486;51.098;13.770;2023-04-24T03:02:25;0.50;;;0.50;;
65751;SDS011;52486;51.098;13.770;2023-04-24T03:04:50;0.50;;;0.50;;
65751;SDS011;52486;51.098;13.770;2023-04-24T03:07:16;0.60;;;0.60;;
65751;SDS011;52486;51.098;13.770;2023-04-24T03:09:42;0.40;;;0.40;;
65751;SDS011;52486;51.098;13.770;2023-04-24T03:12:07;0.60;;;0.60;;
65751;SDS011;52486;51.098;13.770;2023-04-24T03:14:33;0.50;;;0.50;;
65751;SDS011;52486;51.098;13.770;2023-04-24T03:16:59;0.57;;;0.57;;
65751;SDS011;52486;51.098;13.770;2023-04-24T03:19:25;0.65;;;0.65;;
65751;SDS011;52486;51.098;13.770;2023-04-24T03:21:51;0.52;;;0.52;;
65751;SDS011;52486;51.098;13.770;2023-04-24T03:24:16;0.60;;;0.60;;
65751;SDS011;52486;51.098;13.770;2023-04-24T03:26:42;0.68;;;0.68;;
65751;SDS011;52486;51.098;13.770;2023-04-24T03:29:08;0.70;;;0.70;;
65751;SDS011;52486;51.098;13.770;2023-04-24T03:31:33;0.70;;;0.70;;
65751;SDS011;52486;51.098;13.770;2023-04-24T03:33:59;0.55;;;0.55;;
65751;SDS011;52486;51.098;13.770;2023-04-24T03:36:25;0.55;;;0.55;;
65751;SDS011;52486;51.098;13.770;2023-04-24T03:38:51;0.80;;;0.50;;
65751;SDS011;52486;51.098;13.770;2023-04-24T03:41:16;0.55;;;0.55;;
65751;SDS011;52486;51.098;13.770;2023-04-24T03:43:42;0.77;;;0.73;;
65751;SDS011;52486;51.098;13.770;2023-04-24T03:46:08;0.60;;;0.60;;
65751;SDS011;52486;51.098;13.770;2023-04-24T03:48:34;0.60;;;0.60;;
65751;SDS011;52486;51.098;13.770;2023-04-24T03:51:00;0.50;;;0.50;;
65751;SDS011;52486;51.098;13.770;2023-04-24T03:53:26;2.00;;;0.70;;
65751;SDS011;52486;51.098;13.770;2023-04-24T03:55:52;0.75;;;0.70;;
65751;SDS011;52486;51.098;13.770;2023-04-24T03:58:18;0.52;;;0.52;;
65751;SDS011;52486;51.098;13.770;2023-04-24T04:00:44;0.63;;;0.63;;
65751;SDS011;52486;51.098;13.770;2023-04-24T04:03:11;0.60;;;0.60;;
65751;SDS011;52486;51.098;13.770;2023-04-24T04:05:38;1.52;;;0.82;;
65751;SDS011;52486;51.098;13.770;2023-04-24T04:08:04;0.60;;;0.60;;
65751;SDS011;52486;51.098;13.770;2023-04-24T04:10:30;1.30;;;0.73;;
65751;SDS011;52486;51.098;13.770;2023-04-24T04:12:55;1.13;;;0.80;;
65751;SDS011;52486;51.098;13.770;2023-04-24T04:15:21;0.90;;;0.70;;
65751;SDS011;52486;51.098;13.770;2023-04-24T04:17:47;0.60;;;0.60;;
65751;SDS011;52486;51.098;13.770;2023-04-24T04:20:12;0.70;;;0.70;;
65751;SDS011;52486;51.098;13.770;2023-04-24T04:22:38;0.70;;;0.70;;
65751;SDS011;52486;51.098;13.770;2023-04-24T04:25:04;1.27;;;0.90;;
65751;SDS011;52486;51.098;13.770;2023-04-24T04:27:30;0.70;;;0.70;;
65751;SDS011;52486;51.098;13.770;2023-04-24T04:29:59;0.70;;;0.70;;
65751;SDS011;52486;51.098;13.770;2023-04-24T04:32:29;0.60;;;0.60;;
65751;SDS011;52486;51.098;13.770;2023-04-24T04:34:59;0.60;;;0.60;;
65751;SDS011;52486;51.098;13.770;2023-04-24T04:37:31;0.63;;;0.63;;
65751;SDS011;52486;51.098;13.770;2023-04-24T04:40:00;0.75;;;0.73;;
65751;SDS011;52486;51.098;13.770;2023-04-24T04:42:27;0.80;;;0.80;;
65751;SDS011;52486;51.098;13.770;2023-04-24T04:44:53;0.80;;;0.80;;
65751;SDS011;52486;51.098;13.770;2023-04-24T04:47:20;0.80;;;0.75;;
65751;SDS011;52486;51.098;13.770;2023-04-24T04:49:49;0.70;;;0.70;;
65751;SDS011;52486;51.098;13.770;2023-04-24T04:52:18;0.70;;;0.70;;
65751;SDS011;52486;51.098;13.770;2023-04-24T04:54:44;1.02;;;0.82;;
65751;SDS011;52486;51.098;13.770;2023-04-24T04:57:11;0.82;;;0.82;;
65751;SDS011;52486;51.098;13.770;2023-04-24T04:59:37;0.88;;;0.70;;
65751;SDS011;52486;51.098;13.770;2023-04-24T05:02:03;1.00;;;0.90;;
65751;SDS011;52486;51.098;13.770;2023-04-24T05:04:29;0.82;;;0.80;;
65751;SDS011;52486;51.098;13.770;2023-04-24T05:06:55;0.90;;;0.90;;
65751;SDS011;52486;51.098;13.770;2023-04-24T05:09:21;0.80;;;0.80;;
65751;SDS011;52486;51.098;13.770;2023-04-24T05:11:47;1.02;;;0.80;;
65751;SDS011;52486;51.098;13.770;2023-04-24T05:14:13;0.63;;;0.63;;
65751;SDS011;52486;51.098;13.770;2023-04-24T05:16:39;0.90;;;0.80;;
65751;SDS011;52486;51.098;13.770;2023-04-24T05:19:06;1.50;;;0.80;;
65751;SDS011;52486;51.098;13.770;2023-04-24T05:21:32;2.45;;;0.98;;
65751;SDS011;52486;51.098;13.770;2023-04-24T05:23:58;0.95;;;0.80;;
65751;SDS011;52486;51.098;13.770;2023-04-24T05:26:24;1.77;;;0.90;;
65751;SDS011;52486;51.098;13.770;2023-04-24T05:28:50;0.90;;;0.90;;
65751;SDS011;52486;51.098;13.770;2023-04-24T05:31:16;0.70;;;0.70;;
65751;SDS011;52486;51.098;13.770;2023-04-24T05:33:42;0.90;;;0.82;;
65751;SDS011;52486;51.098;13.770;2023-04-24T05:36:09;0.80;;;0.80;;
65751;SDS011;52486;51.098;13.770;2023-04-24T05:38:35;0.80;;;0.80;;
65751;SDS011;52486;51.098;13.770;2023-04-24T05:41:01;2.28;;;1.05;;
65751;SDS011;52486;51.098;13.770;2023-04-24T05:43:27;0.80;;;0.80;;
65751;SDS011;52486;51.098;13.770;2023-04-24T05:45:53;1.05;;;0.95;;
65751;SDS011;52486;51.098;13.770;2023-04-24T05:48:20;0.93;;;0.93;;
65751;SDS011;52486;51.098;13.770;2023-04-24T05:50:47;1.05;;;0.80;;
65751;SDS011;52486;51.098;13.770;2023-04-24T05:53:13;0.77;;;0.77;;
65751;SDS011;52486;51.098;13.770;2023-04-24T05:55:39;1.08;;;0.70;;
65751;SDS011;52486;51.098;13.770;2023-04-24T05:58:05;0.90;;;0.90;;
65751;SDS011;52486;51.098;13.770;2023-04-24T06:00:31;0.90;;;0.90;;
65751;SDS011;52486;51.098;13.770;2023-04-24T06:02:59;1.58;;;0.88;;
65751;SDS011;52486;51.098;13.770;2023-04-24T06:05:25;1.02;;;0.90;;
65751;SDS011;52486;51.098;13.770;2023-04-24T06:07:51;0.70;;;0.70;;
65751;SDS011;52486;51.098;13.770;2023-04-24T06:10:17;0.73;;;0.73;;
65751;SDS011;52486;51.098;13.770;2023-04-24T06:12:43;1.13;;;0.77;;
65751;SDS011;52486;51.098;13.770;2023-04-24T06:15:09;0.80;;;0.80;;
65751;SDS011;52486;51.098;13.770;2023-04-24T06:17:36;1.08;;;0.80;;
65751;SDS011;52486;51.098;13.770;2023-04-24T06:20:02;1.55;;;0.80;;
65751;SDS011;52486;51.098;13.770;2023-04-24T06:22:30;0.93;;;0.90;;
65751;SDS011;52486;51.098;13.770;2023-04-24T06:24:56;0.70;;;0.70;;
65751;SDS011;52486;51.098;13.770;2023-04-24T06:27:22;0.77;;;0.77;;
65751;SDS011;52486;51.098;13.770;2023-04-24T06:29:48;0.70;;;0.70;;
65751;SDS011;52486;51.098;13.770;2023-04-24T06:32:20;1.58;;;0.85;;
65751;SDS011;52486;51.098;13.770;2023-04-24T06:34:46;0.98;;;0.95;;
65751;SDS011;52486;51.098;13.770;2023-04-24T06:37:12;1.70;;;0.90;;
65751;SDS011;52486;51.098;13.770;2023-04-24T06:39:38;0.70;;;0.70;;
65751;SDS011;52486;51.098;13.770;2023-04-24T06:42:04;1.02;;;0.90;;
65751;SDS011;52486;51.098;13.770;2023-04-24T06:44:30;2.15;;;0.77;;
65751;SDS011;52486;51.098;13.770;2023-04-24T06:46:56;3.58;;;0.98;;
65751;SDS011;52486;51.098;13.770;2023-04-24T06:49:22;2.05;;;1.02;;
65751;SDS011;52486;51.098;13.770;2023-04-24T06:51:48;0.90;;;0.90;;
65751;SDS011;52486;51.098;13.770;2023-04-24T06:54:14;2.45;;;1.10;;
65751;SDS011;52486;51.098;13.770;2023-04-24T06:56:40;1.10;;;1.00;;
65751;SDS011;52486;51.098;13.770;2023-04-24T06:59:06;10.43;;;1.10;;
65751;SDS011;52486;51.098;13.770;2023-04-24T07:01:32;1.15;;;1.05;;
65751;SDS011;52486;51.098;13.770;2023-04-24T07:03:58;1.30;;;0.98;;
65751;SDS011;52486;51.098;13.770;2023-04-24T07:06:24;1.10;;;1.00;;
65751;SDS011;52486;51.098;13.770;2023-04-24T07:08:52;1.48;;;0.95;;
65751;SDS011;52486;51.098;13.770;2023-04-24T07:11:18;1.27;;;1.00;;
65751;SDS011;52486;51.098;13.770;2023-04-24T07:13:45;2.30;;;1.15;;
65751;SDS011;52486;51.098;13.770;2023-04-24T07:16:11;3.42;;;1.10;;
65751;SDS011;52486;51.098;13.770;2023-04-24T07:18:37;2.35;;;1.10;;
65751;SDS011;52486;51.098;13.770;2023-04-24T07:21:04;2.20;;;1.20;;
65751;SDS011;52486;51.098;13.770;2023-04-24T07:23:32;4.07;;;1.30;;
65751;SDS011;52486;51.098;13.770;2023-04-24T07:25:58;3.20;;;1.40;;
65751;SDS011;52486;51.098;13.770;2023-04-24T07:28:24;2.00;;;1.30;;
65751;SDS011;52486;51.098;13.770;2023-04-24T07:30:50;7.63;;;1.13;;
65751;SDS011;52486;51.098;13.770;2023-04-24T07:33:18;4.70;;;1.30;;
65751;SDS011;52486;51.098;13.770;2023-04-24T07:35:44;15.45;;;1.80;;
65751;SDS011;52486;51.098;13.770;2023-04-24T07:38:10;2.88;;;1.20;;
65751;SDS011;52486;51.098;13.770;2023-04-24T07:40:36;8.07;;;1.15;;
65751;SDS011;52486;51.098;13.770;2023-04-24T07:43:02;3.85;;;1.10;;
65751;SDS011;52486;51.098;13.770;2023-04-24T07:45:27;1.98;;;1.08;;
65751;SDS011;52486;51.098;13.770;2023-04-24T07:47:53;3.58;;;1.20;;
65751;SDS011;52486;51.098;13.770;2023-04-24T07:50:19;1.90;;;0.88;;
65751;SDS011;52486;51.098;13.770;2023-04-24T07:52:46;5.72;;;2.00;;
65751;SDS011;52486;51.098;13.770;2023-04-24T07:55:12;1.98;;;0.90;;
65751;SDS011;52486;51.098;13.770;2023-04-24T07:57:37;5.70;;;1.10;;
65751;SDS011;52486;51.098;13.770;2023-04-24T08:00:04;3.08;;;1.10;;
65751;SDS011;52486;51.098;13.770;2023-04-24T08:02:31;2.47;;;1.00;;
65751;SDS011;52486;51.098;13.770;2023-04-24T08:04:57;4.30;;;0.88;;
65751;SDS011;52486;51.098;13.770;2023-04-24T08:07:23;4.45;;;1.08;;
65751;SDS011;52486;51.098;13.770;2023-04-24T08:09:48;5.13;;;0.90;;
65751;SDS011;52486;51.098;13.770;2023-04-24T08:12:14;7.35;;;1.10;;
65751;SDS011;52486;51.098;13.770;2023-04-24T08:14:40;1.25;;;0.90;;
65751;SDS011;52486;51.098;13.770;2023-04-24T08:17:06;5.80;;;1.00;;
65751;SDS011;52486;51.098;13.770;2023-04-24T08:19:33;4.20;;;1.02;;
65751;SDS011;52486;51.098;13.770;2023-04-24T08:21:59;5.85;;;0.98;;
65751;SDS011;52486;51.098;13.770;2023-04-24T08:24:25;5.50;;;0.98;;
65751;SDS011;52486;51.098;13.770;2023-04-24T08:26:52;4.05;;;1.10;;
65751;SDS011;52486;51.098;13.770;2023-04-24T08:29:19;6.72;;;1.10;;
65751;SDS011;52486;51.098;13.770;2023-04-24T08:31:45;4.57;;;1.13;;
65751;SDS011;52486;51.098;13.770;2023-04-24T08:34:11;1.30;;;0.90;;
65751;SDS011;52486;51.098;13.770;2023-04-24T08:36:37;3.58;;;1.05;;
65751;SDS011;52486;51.098;13.770;2023-04-24T08:39:05;6.00;;;1.27;;
65751;SDS011;52486;51.098;13.770;2023-04-24T08:41:32;8.73;;;1.10;;
65751;SDS011;52486;51.098;13.770;2023-04-24T08:43:59;5.85;;;0.90;;
65751;SDS011;52486;51.098;13.770;2023-04-24T08:46:26;4.28;;;1.13;;
65751;SDS011;52486;51.098;13.770;2023-04-24T08:48:53;3.45;;;0.88;;
65751;SDS011;52486;51.098;13.770;2023-04-24T08:51:21;6.93;;;1.30;;
65751;SDS011;52486;51.098;13.770;2023-04-24T08:53:50;3.95;;;1.13;;
65751;SDS011;52486;51.098;13.770;2023-04-24T08:56:17;6.68;;;1.38;;
65751;SDS011;52486;51.098;13.770;2023-04-24T08:58:43;9.68;;;1.10;;
65751;SDS011;52486;51.098;13.770;2023-04-24T09:01:10;2.78;;;0.98;;
65751;SDS011;52486;51.098;13.770;2023-04-24T09:03:37;4.65;;;0.90;;
65751;SDS011;52486;51.098;13.770;2023-04-24T09:06:03;1.80;;;0.70;;
65751;SDS011;52486;51.098;13.770;2023-04-24T09:08:31;2.20;;;0.80;;
65751;SDS011;52486;51.098;13.770;2023-04-24T09:10:58;2.63;;;0.80;;
65751;SDS011;52486;51.098;13.770;2023-04-24T09:13:26;2.15;;;0.80;;
65751;SDS011;52486;51.098;13.770;2023-04-24T09:15:52;1.25;;;0.75;;
65751;SDS011;52486;51.098;13.770;2023-04-24T09:18:19;5.20;;;0.70;;
65751;SDS011;52486;51.098;13.770;2023-04-24T09:20:56;2.83;;;0.70;;
65751;SDS011;52486;51.098;13.770;2023-04-24T09:23:28;7.35;;;0.85;;
65751;SDS011;52486;51.098;13.770;2023-04-24T09:25:57;3.25;;;0.85;;
65751;SDS011;52486;51.098;13.770;2023-04-24T09:28:31;5.18;;;0.90;;
65751;SDS011;52486;51.098;13.770;2023-04-24T09:31:03;3.03;;;0.70;;
65751;SDS011;52486;51.098;13.770;2023-04-24T09:33:47;4.90;;;0.55;;
65751;SDS011;52486;51.098;13.770;2023-04-24T09:36:31;1.67;;;0.80;;
65751;SDS011;52486;51.098;13.770;2023-04-24T09:38:59;3.08;;;0.68;;
65751;SDS011;52486;51.098;13.770;2023-04-24T09:41:29;4.95;;;0.70;;
65751;SDS011;52486;51.098;13.770;2023-04-24T09:43:55;4.13;;;0.70;;
65751;SDS011;52486;51.098;13.770;2023-04-24T09:46:28;1.23;;;0.50;;
65751;SDS011;52486;51.098;13.770;2023-04-24T09:48:56;5.93;;;0.70;;
65751;SDS011;52486;51.098;13.770;2023-04-24T09:51:35;3.90;;;0.68;;
65751;SDS011;52486;51.098;13.770;2023-04-24T09:54:24;2.72;;;0.60;;
65751;SDS011;52486;51.098;13.770;2023-04-24T09:56:50;2.58;;;0.60;;
65751;SDS011;52486;51.098;13.770;2023-04-24T09:59:17;3.65;;;0.60;;
65751;SDS011;52486;51.098;13.770;2023-04-24T10:01:44;1.90;;;0.70;;
65751;SDS011;52486;51.098;13.770;2023-04-24T10:04:18;4.18;;;0.82;;
65751;SDS011;52486;51.098;13.770;2023-04-24T10:06:45;3.17;;;0.68;;
65751;SDS011;52486;51.098;13.770;2023-04-24T10:09:11;0.82;;;0.73;;
65751;SDS011;52486;51.098;13.770;2023-04-24T10:11:41;6.00;;;0.70;;
65751;SDS011;52486;51.098;13.770;2023-04-24T10:16:37;1.88;;;0.57;;
65751;SDS011;52486;51.098;13.770;2023-04-24T10:19:06;2.95;;;0.60;;
65751;SDS011;52486;51.098;13.770;2023-04-24T10:21:32;6.75;;;0.90;;
65751;SDS011;52486;51.098;13.770;2023-04-24T10:24:00;1.10;;;0.70;;
65751;SDS011;52486;51.098;13.770;2023-04-24T10:26:28;5.13;;;0.85;;
65751;SDS011;52486;51.098;13.770;2023-04-24T10:28:54;1.75;;;0.82;;
65751;SDS011;52486;51.098;13.770;2023-04-24T10:31:23;4.30;;;0.98;;
65751;SDS011;52486;51.098;13.770;2023-04-24T10:33:50;9.98;;;1.10;;
65751;SDS011;52486;51.098;13.770;2023-04-24T10:36:17;4.82;;;0.98;;
65751;SDS011;52486;51.098;13.770;2023-04-24T10:38:43;6.57;;;1.20;;
65751;SDS011;52486;51.098;13.770;2023-04-24T10:41:12;6.10;;;1.30;;
65751;SDS011;52486;51.098;13.770;2023-04-24T10:43:44;6.97;;;1.25;;
65751;SDS011;52486;51.098;13.770;2023-04-24T10:46:10;3.35;;;0.90;;
65751;SDS011;52486;51.098;13.770;2023-04-24T10:48:44;5.80;;;1.10;;
65751;SDS011;52486;51.098;13.770;2023-04-24T10:51:21;7.72;;;1.83;;
65751;SDS011;52486;51.098;13.770;2023-04-24T10:53:51;4.63;;;1.10;;
65751;SDS011;52486;51.098;13.770;2023-04-24T10:56:17;3.15;;;1.02;;
65751;SDS011;52486;51.098;13.770;2023-04-24T11:01:26;3.75;;;0.90;;
65751;SDS011;52486;51.098;13.770;2023-04-24T11:03:57;1.75;;;0.70;;
65751;SDS011;52486;51.098;13.770;2023-04-24T11:06:34;2.40;;;0.82;;
65751;SDS011;52486;51.098;13.770;2023-04-24T11:09:06;3.60;;;0.80;;
65751;SDS011;52486;51.098;13.770;2023-04-24T11:11:33;4.00;;;0.90;;
65751;SDS011;52486;51.098;13.770;2023-04-24T11:14:01;3.38;;;1.02;;
65751;SDS011;52486;51.098;13.770;2023-04-24T11:16:30;3.05;;;1.00;;
65751;SDS011;52486;51.098;13.770;2023-04-24T11:21:42;3.72;;;1.13;;
65751;SDS011;52486;51.098;13.770;2023-04-24T11:34:56;1.77;;;0.80;;
65751;SDS011;52486;51.098;13.770;2023-04-24T11:37:49;5.10;;;0.90;;
65751;SDS011;52486;51.098;13.770;2023-04-24T11:40:17;3.45;;;0.98;;
65751;SDS011;52486;51.098;13.770;2023-04-24T11:42:46;2.10;;;0.90;;
65751;SDS011;52486;51.098;13.770;2023-04-24T11:45:25;3.90;;;1.00;;
65751;SDS011;52486;51.098;13.770;2023-04-24T11:47:55;3.13;;;0.70;;
65751;SDS011;52486;51.098;13.770;2023-04-24T11:50:22;1.50;;;0.80;;
65751;SDS011;52486;51.098;13.770;2023-04-24T11:52:50;6.82;;;0.90;;
65751;SDS011;52486;51.098;13.770;2023-04-24T11:57:46;3.03;;;0.70;;
65751;SDS011;52486;51.098;13.770;2023-04-24T12:00:17;1.27;;;0.50;;
65751;SDS011;52486;51.098;13.770;2023-04-24T12:02:43;3.70;;;0.70;;
65751;SDS011;52486;51.098;13.770;2023-04-24T12:05:18;0.88;;;0.55;;
65751;SDS011;52486;51.098;13.770;2023-04-24T12:07:52;1.63;;;0.50;;
65751;SDS011;52486;51.098;13.770;2023-04-24T12:10:25;2.30;;;0.70;;
65751;SDS011;52486;51.098;13.770;2023-04-24T12:12:52;1.48;;;0.50;;
65751;SDS011;52486;51.098;13.770;2023-04-24T12:15:19;2.20;;;0.50;;
65751;SDS011;52486;51.098;13.770;2023-04-24T12:17:45;2.63;;;0.55;;
65751;SDS011;52486;51.098;13.770;2023-04-24T12:20:11;0.88;;;0.40;;
65751;SDS011;52486;51.098;13.770;2023-04-24T12:25:16;0.40;;;0.40;;
65751;SDS011;52486;51.098;13.770;2023-04-24T12:27:51;0.40;;;0.40;;
65751;SDS011;52486;51.098;13.770;2023-04-24T12:30:18;0.82;;;0.32;;
65751;SDS011;52486;51.098;13.770;2023-04-24T12:32:47;1.77;;;0.50;;
65751;SDS011;52486;51.098;13.770;2023-04-24T12:37:44;1.08;;;0.60;;
65751;SDS011;52486;51.098;13.770;2023-04-24T12:40:10;3.13;;;0.63;;
65751;SDS011;52486;51.098;13.770;2023-04-24T12:42:44;1.20;;;0.50;;
65751;SDS011;52486;51.098;13.770;2023-04-24T12:45:11;4.47;;;0.80;;
65751;SDS011;52486;51.098;13.770;2023-04-24T12:47:38;0.52;;;0.50;;
65751;SDS011;52486;51.098;13.770;2023-04-24T12:50:05;2.42;;;0.57;;
65751;SDS011;52486;51.098;13.770;2023-04-24T12:52:32;4.00;;;0.80;;
65751;SDS011;52486;51.098;13.770;2023-04-24T12:54:59;5.40;;;0.70;;
65751;SDS011;52486;51.098;13.770;2023-04-24T12:57:26;1.10;;;0.52;;
65751;SDS011;52486;51.098;13.770;2023-04-24T12:59:54;3.40;;;0.50;;
65751;SDS011;52486;51.098;13.770;2023-04-24T13:02:25;2.03;;;0.73;;
65751;SDS011;52486;51.098;13.770;2023-04-24T13:04:52;4.30;;;0.73;;
65751;SDS011;52486;51.098;13.770;2023-04-24T13:07:17;4.88;;;0.75;;
65751;SDS011;52486;51.098;13.770;2023-04-24T13:09:43;0.57;;;0.50;;
65751;SDS011;52486;51.098;13.770;2023-04-24T13:12:10;0.57;;;0.57;;
65751;SDS011;52486;51.098;13.770;2023-04-24T13:14:37;5.13;;;0.70;;
65751;SDS011;52486;51.098;13.770;2023-04-24T13:17:03;3.83;;;0.50;;
65751;SDS011;52486;51.098;13.770;2023-04-24T13:19:29;2.25;;;0.50;;
65751;SDS011;52486;51.098;13.770;2023-04-24T13:22:00;2.03;;;0.68;;
65751;SDS011;52486;51.098;13.770;2023-04-24T13:24:26;2.45;;;0.60;;
65751;SDS011;52486;51.098;13.770;2023-04-24T13:26:52;3.55;;;0.50;;
65751;SDS011;52486;51.098;13.770;2023-04-24T13:29:18;0.50;;;0.50;;
65751;SDS011;52486;51.098;13.770;2023-04-24T13:31:45;1.23;;;0.57;;
65751;SDS011;52486;51.098;13.770;2023-04-24T13:34:12;1.85;;;0.82;;
65751;SDS011;52486;51.098;13.770;2023-04-24T13:36:38;2.35;;;0.70;;
65751;SDS011;52486;51.098;13.770;2023-04-24T13:39:04;1.30;;;0.63;;
65751;SDS011;52486;51.098;13.770;2023-04-24T13:41:32;1.20;;;0.70;;
65751;SDS011;52486;51.098;13.770;2023-04-24T13:43:58;0.80;;;0.60;;
65751;SDS011;52486;51.098;13.770;2023-04-24T13:46:24;2.88;;;0.65;;
65751;SDS011;52486;51.098;13.770;2023-04-24T13:48:50;1.25;;;0.60;;
65751;SDS011;52486;51.098;13.770;2023-04-24T13:51:17;2.35;;;0.80;;
65751;SDS011;52486;51.098;13.770;2023-04-24T13:53:43;1.73;;;0.57;;
65751;SDS011;52486;51.098;13.770;2023-04-24T13:56:08;0.77;;;0.77;;
65751;SDS011;52486;51.098;13.770;2023-04-24T13:58:34;3.08;;;0.80;;
65751;SDS011;52486;51.098;13.770;2023-04-24T14:01:04;2.83;;;1.10;;
65751;SDS011;52486;51.098;13.770;2023-04-24T14:03:32;5.43;;;0.80;;
65751;SDS011;52486;51.098;13.770;2023-04-24T14:05:58;2.78;;;0.70;;
65751;SDS011;52486;51.098;13.770;2023-04-24T14:08:24;1.25;;;0.70;;
65751;SDS011;52486;51.098;13.770;2023-04-24T14:10:50;1.60;;;0.60;;
65751;SDS011;52486;51.098;13.770;2023-04-24T14:13:16;4.50;;;0.60;;
65751;SDS011;52486;51.098;13.770;2023-04-24T14:15:42;2.97;;;0.80;;
65751;SDS011;52486;51.098;13.770;2023-04-24T14:18:08;1.25;;;0.82;;
65751;SDS011;52486;51.098;13.770;2023-04-24T14:20:34;4.68;;;0.80;;
65751;SDS011;52486;51.098;13.770;2023-04-24T14:23:00;1.13;;;0.57;;
65751;SDS011;52486;51.098;13.770;2023-04-24T14:25:26;1.40;;;0.85;;
65751;SDS011;52486;51.098;13.770;2023-04-24T14:27:52;1.95;;;0.70;;
65751;SDS011;52486;51.098;13.770;2023-04-24T14:30:18;1.13;;;0.68;;
65751;SDS011;52486;51.098;13.770;2023-04-24T14:32:44;1.65;;;1.05;;
65751;SDS011;52486;51.098;13.770;2023-04-24T14:35:10;0.73;;;0.70;;
65751;SDS011;52486;51.098;13.770;2023-04-24T14:37:36;7.75;;;0.70;;
65751;SDS011;52486;51.098;13.770;2023-04-24T14:40:03;3.33;;;0.90;;
65751;SDS011;52486;51.098;13.770;2023-04-24T14:42:30;2.22;;;0.85;;
65751;SDS011;52486;51.098;13.770;2023-04-24T14:44:56;2.67;;;0.80;;
65751;SDS011;52486;51.098;13.770;2023-04-24T14:47:22;1.30;;;0.80;;
65751;SDS011;52486;51.098;13.770;2023-04-24T14:49:48;1.42;;;0.80;;
65751;SDS011;52486;51.098;13.770;2023-04-24T14:52:14;1.55;;;0.80;;
65751;SDS011;52486;51.098;13.770;2023-04-24T14:54:41;1.33;;;0.90;;
65751;SDS011;52486;51.098;13.770;2023-04-24T14:57:07;2.30;;;0.70;;
65751;SDS011;52486;51.098;13.770;2023-04-24T14:59:33;0.70;;;0.68;;